Time;durP1;ratioP1;P1;durP2;ratioP2;P2;SDS_P1;SDS_P2;PMS_P1;PMS_P2;Temp;Humidity;BMP_temperature;BMP_pressure;BME280_temperature;BME280_humidity;BME280_pressure;Samples;Min_cycle;Max_cycle;Signal;HPM_P1;HPM_P2
2023/10/05 00:00:31;;;;;;;6.73;3.90;;;12.20;99.90;;;;;;10442884;28;20201;-78
2023/10/05 00:05:41;;;;;;;7.63;3.23;;;12.10;1.00;;;;;;10410107;28;20442;-79
2023/10/05 00:11:06;;;;;;;8.97;3.87;;;12.10;1.00;;;;;;10435962;28;20245;-77
2023/10/05 00:16:37;;;;;;;9.13;3.87;;;12.20;99.90;;;;;;10436089;28;20229;-79
2023/10/05 00:21:58;;;;;;;9.40;3.90;;;12.30;1.00;;;;;;10435426;28;20444;-80
2023/10/05 00:27:20;;;;;;;9.47;3.97;;;12.30;1.00;;;;;;10433384;28;20194;-78
2023/10/05 00:32:46;;;;;;;11.97;4.30;;;12.40;99.90;;;;;;10436001;28;20419;-78
2023/10/05 00:38:12;;;;;;;14.67;4.33;;;12.40;1.00;;;;;;10434520;28;20218;-78
2023/10/05 00:43:33;;;;;;;9.53;4.53;;;12.40;1.00;;;;;;10436809;28;20270;-79
2023/10/05 00:49:03;;;;;;;10.53;4.03;;;12.50;44.70;;;;;;10434573;28;20384;-78
2023/10/05 00:54:29;;;;;;;8.93;3.90;;;12.40;99.90;;;;;;10436189;28;20237;-78
2023/10/05 01:00:26;;;;;;;13.47;4.70;;;12.40;99.90;;;;;;10435816;28;20201;-78
2023/10/05 01:05:47;;;;;;;14.33;5.13;;;12.40;99.90;;;;;;10436265;28;20204;-79
2023/10/05 01:11:14;;;;;;;9.43;4.27;;;12.30;1.00;;;;;;10405579;28;20226;-78
2023/10/05 01:16:35;;;;;;;11.70;4.63;;;12.30;99.90;;;;;;10410438;28;20200;-79
2023/10/05 01:21:57;;;;;;;13.40;4.80;;;12.20;1.00;;;;;;10409495;28;20281;-78
2023/10/05 01:27:19;;;;;;;8.73;4.10;;;12.20;1.00;;;;;;10381390;28;20430;-79
2023/10/05 01:32:41;;;;;;;10.87;4.60;;;12.30;99.90;;;;;;10435255;28;20260;-77
2023/10/05 01:38:02;;;;;;;14.20;4.53;;;12.30;99.90;;;;;;10438393;28;20284;-77
2023/10/05 01:43:28;;;;;;;13.17;4.17;;;12.30;99.90;;;;;;10442546;28;20399;-79
2023/10/05 01:48:51;;;;;;;23.03;4.57;;;12.30;99.90;;;;;;10442058;28;20197;-78
2023/10/05 01:54:15;;;;;;;9.53;4.20;;;12.30;99.90;;;;;;10441863;28;20227;-78
2023/10/05 01:59:40;;;;;;;9.67;3.70;;;12.30;1.00;;;;;;10442027;28;20264;-77
2023/10/05 02:05:03;;;;;;;11.93;4.47;;;12.20;1.00;;;;;;10441532;28;20256;-78
2023/10/05 02:10:24;;;;;;;10.33;4.83;;;12.20;1.00;;;;;;10404008;28;20260;-79
2023/10/05 02:15:52;;;;;;;14.97;5.43;;;12.20;99.90;;;;;;10414250;28;20188;-78
2023/10/05 02:21:25;;;;;;;14.47;4.97;;;12.20;1.00;;;;;;10415886;28;20419;-78
2023/10/05 02:32:27;;;;;;;13.73;4.43;;;12.10;99.90;;;;;;10429570;28;20602;-78
2023/10/05 02:37:51;;;;;;;8.50;3.80;;;12.10;99.90;;;;;;10430270;28;20271;-79
2023/10/05 02:43:15;;;;;;;11.77;4.40;;;12.00;1.00;;;;;;10440619;28;20198;-76
2023/10/05 02:48:43;;;;;;;10.90;4.20;;;12.00;1.00;;;;;;10439052;28;20234;-79
2023/10/05 02:54:09;;;;;;;10.73;5.17;;;11.90;44.50;;;;;;10444772;28;20287;-79
2023/10/05 02:59:31;;;;;;;11.40;5.37;;;11.90;99.90;;;;;;10438813;28;20213;-80
2023/10/05 03:04:58;;;;;;;12.67;4.50;;;11.90;1.00;;;;;;10439438;28;20591;-78
2023/10/05 03:10:23;;;;;;;13.87;5.17;;;11.90;99.90;;;;;;10416175;28;20237;-78
2023/10/05 03:15:45;;;;;;;9.53;4.60;;;11.90;1.00;;;;;;10409659;28;20206;-77
2023/10/05 03:21:14;;;;;;;9.53;4.00;;;11.80;1.00;;;;;;10456518;28;20455;-79
2023/10/05 03:26:35;;;;;;;12.77;6.20;;;11.80;99.90;;;;;;10435452;28;20379;-79
2023/10/05 03:37:31;;;;;;;11.60;5.30;;;11.80;1.00;;;;;;10439916;28;20197;-76
2023/10/05 03:42:59;;;;;;;9.90;4.80;;;11.70;99.90;;;;;;10396806;28;20201;-76
2023/10/05 03:48:26;;;;;;;8.77;4.50;;;11.70;1.00;;;;;;10449605;28;20197;-76
2023/10/05 03:53:48;;;;;;;14.07;5.57;;;11.70;1.00;;;;;;10430860;28;20223;-78
2023/10/05 03:59:10;;;;;;;10.87;4.83;;;11.70;1.00;;;;;;10444055;28;20500;-79
2023/10/05 04:04:36;;;;;;;9.93;5.00;;;11.60;1.00;;;;;;10478989;28;20242;-78
2023/10/05 04:10:01;;;;;;;13.60;5.67;;;11.60;1.00;;;;;;10450063;28;20226;-79
2023/10/05 04:15:23;;;;;;;10.57;4.93;;;11.60;1.00;;;;;;10437402;28;20228;-78
2023/10/05 04:20:44;;;;;;;18.33;5.17;;;11.60;1.00;;;;;;10452393;28;20583;-78
2023/10/05 04:26:08;;;;;;;13.77;6.97;;;11.60;1.00;;;;;;10398881;28;20198;-79
2023/10/05 04:31:33;;;;;;;10.10;5.47;;;11.60;1.00;;;;;;10458734;28;20278;-79
2023/10/05 04:36:56;;;;;;;13.03;5.50;;;11.70;99.60;;;;;;10422162;28;20216;-79
2023/10/05 04:42:17;;;;;;;9.50;5.33;;;11.60;1.00;;;;;;10436127;28;20210;-79
2023/10/05 04:47:39;;;;;;;10.33;5.40;;;11.70;99.90;;;;;;10394098;28;20202;-78
2023/10/05 04:53:00;;;;;;;10.57;4.97;;;11.60;34.60;;;;;;10450172;28;20249;-80
2023/10/05 04:58:24;;;;;;;14.00;5.30;;;11.70;99.90;;;;;;10434224;28;20214;-80
2023/10/05 05:03:55;;;;;;;13.83;6.63;;;11.70;1.00;;;;;;10435256;28;20205;-80
2023/10/05 05:09:17;;;;;;;10.83;5.83;;;11.70;1.00;;;;;;10433947;28;20231;-78
2023/10/05 05:14:42;;;;;;;17.33;6.90;;;11.70;99.90;;;;;;10442314;28;20234;-80
2023/10/05 05:20:11;;;;;;;10.73;5.30;;;11.70;1.00;;;;;;10435635;28;20246;-79
2023/10/05 05:25:32;;;;;;;11.80;5.70;;;11.80;1.00;;;;;;10425012;28;20203;-79
2023/10/05 05:30:53;;;;;;;15.10;5.50;;;11.70;1.00;;;;;;10451984;28;20213;-79
2023/10/05 05:36:16;;;;;;;11.40;6.00;;;11.70;99.90;;;;;;10445690;28;20205;-81
2023/10/05 05:41:37;;;;;;;13.50;6.07;;;11.80;99.90;;;;;;10470741;28;20189;-80
2023/10/05 05:47:10;;;;;;;13.63;6.30;;;11.80;99.90;;;;;;10441644;28;20389;-77
2023/10/05 05:52:31;;;;;;;13.63;5.83;;;11.80;99.90;;;;;;10442776;28;20231;-77
2023/10/05 05:57:53;;;;;;;13.00;6.33;;;11.90;48.10;;;;;;10470956;28;20230;-78
2023/10/05 06:03:15;;;;;;;12.70;5.73;;;11.90;7.10;;;;;;10442602;28;20196;-80
2023/10/05 06:08:36;;;;;;;12.57;6.23;;;11.90;1.00;;;;;;10477288;28;20455;-80
2023/10/05 06:13:58;;;;;;;11.00;5.93;;;11.90;1.00;;;;;;10479206;28;20294;-80
2023/10/05 06:19:21;;;;;;;13.53;6.80;;;12.00;1.00;;;;;;10440922;28;20197;-81
2023/10/05 06:24:46;;;;;;;12.17;6.33;;;12.00;1.00;;;;;;10439639;28;20196;-80
2023/10/05 06:30:09;;;;;;;16.60;7.63;;;12.10;99.90;;;;;;10441715;28;20198;-82
2023/10/05 06:35:30;;;;;;;11.67;5.97;;;12.10;11.00;;;;;;10448726;28;20244;-79
2023/10/05 06:40:51;;;;;;;17.40;5.67;;;12.20;1.00;;;;;;10482350;28;20267;-77
2023/10/05 06:46:17;;;;;;;12.60;6.77;;;12.30;1.00;;;;;;10476092;28;20288;-81
2023/10/05 06:51:48;;;;;;;12.43;5.93;;;12.40;99.90;;;;;;10458718;28;20223;-81
2023/10/05 06:57:10;;;;;;;14.43;7.27;;;12.40;59.40;;;;;;10462399;28;20209;-79
2023/10/05 07:02:31;;;;;;;14.13;6.43;;;12.30;99.90;;;;;;10386930;28;20244;-79
2023/10/05 07:08:03;;;;;;;12.57;5.50;;;12.20;1.00;;;;;;10454429;28;20255;-80
2023/10/05 07:13:24;;;;;;;11.23;5.83;;;12.30;84.90;;;;;;10469657;28;20234;-79
2023/10/05 07:18:45;;;;;;;14.67;6.50;;;12.30;1.00;;;;;;10437402;28;20254;-79
2023/10/05 07:24:07;;;;;;;11.90;5.90;;;12.20;99.90;;;;;;10466073;28;20723;-79
2023/10/05 07:29:28;;;;;;;44.33;21.70;;;12.10;1.00;;;;;;10475420;28;20212;-79
2023/10/05 07:34:51;;;;;;;11.93;6.20;;;12.10;99.90;;;;;;10465190;28;20256;-77
2023/10/05 07:40:17;;;;;;;15.10;6.20;;;12.10;1.00;;;;;;10433344;28;20202;-79
2023/10/05 07:45:38;;;;;;;14.13;7.07;;;12.00;99.90;;;;;;10440636;28;20275;-79
2023/10/05 07:51:00;;;;;;;14.17;6.63;;;12.00;1.00;;;;;;10461985;28;20453;-79
2023/10/05 07:56:21;;;;;;;11.23;5.77;;;11.90;1.00;;;;;;10454084;28;20236;-80
2023/10/05 08:01:44;;;;;;;13.17;6.57;;;11.90;99.90;;;;;;10426763;28;20201;-82
2023/10/05 08:07:05;;;;;;;11.73;5.57;;;11.90;1.00;;;;;;10431485;28;20423;-79
2023/10/05 08:12:28;;;;;;;11.93;6.17;;;11.90;1.00;;;;;;10430629;28;20225;-79
2023/10/05 08:17:49;;;;;;;13.00;5.77;;;12.00;99.90;;;;;;10401496;28;20198;-78
2023/10/05 08:23:11;;;;;;;9.23;5.60;;;12.00;1.00;;;;;;10431310;28;20215;-79
2023/10/05 08:28:32;;;;;;;12.43;5.80;;;12.00;1.00;;;;;;10424624;28;20230;-78
2023/10/05 08:33:53;;;;;;;7.23;4.77;;;12.20;1.00;;;;;;10478968;28;20393;-78
2023/10/05 08:39:21;;;;;;;9.23;5.27;;;12.10;1.00;;;;;;10441297;28;20216;-78
2023/10/05 08:44:43;;;;;;;10.63;5.43;;;12.20;99.90;;;;;;10416797;28;20231;-77
2023/10/05 08:50:07;;;;;;;8.33;5.30;;;12.20;1.00;;;;;;10434350;28;20219;-77
2023/10/05 08:55:34;;;;;;;14.70;8.07;;;12.20;1.00;;;;;;10430899;28;20232;-78
2023/10/05 09:01:01;;;;;;;11.50;6.20;;;12.30;99.90;;;;;;10430477;28;20201;-76
2023/10/05 09:06:26;;;;;;;11.67;5.00;;;12.20;1.00;;;;;;10433958;28;20197;-77
2023/10/05 09:11:47;;;;;;;9.63;4.67;;;12.30;1.00;;;;;;10428160;28;20221;-78
2023/10/05 09:17:09;;;;;;;10.23;5.50;;;12.30;1.00;;;;;;10429915;28;20528;-83
2023/10/05 09:22:33;;;;;;;11.37;5.50;;;12.40;1.00;;;;;;10414964;28;20282;-79
2023/10/05 09:27:56;;;;;;;8.53;4.93;;;12.30;1.00;;;;;;10437027;28;20213;-78
2023/10/05 09:33:21;;;;;;;12.20;5.20;;;12.30;1.00;;;;;;10460982;28;20225;-76
2023/10/05 09:38:46;;;;;;;6.77;4.27;;;12.30;1.00;;;;;;10454543;28;20554;-77
2023/10/05 09:44:10;;;;;;;6.60;4.00;;;12.40;1.00;;;;;;10418073;28;20517;-77
2023/10/05 09:49:34;;;;;;;9.93;4.73;;;12.50;1.00;;;;;;10420228;28;20544;-76
2023/10/05 09:55:00;;;;;;;9.00;4.53;;;12.40;1.00;;;;;;10426705;28;20583;-77
2023/10/05 10:00:47;;;;;;;6.97;4.40;;;12.40;1.00;;;;;;10467448;28;20285;-76
2023/10/05 10:06:09;;;;;;;9.10;3.50;;;12.50;1.00;;;;;;10447989;28;20205;-78
2023/10/05 10:11:32;;;;;;;8.87;3.60;;;12.50;1.00;;;;;;10442041;28;20521;-77
2023/10/05 10:17:02;;;;;;;8.67;3.83;;;12.50;1.00;;;;;;10439901;28;20226;-76
2023/10/05 10:22:28;;;;;;;5.30;2.70;;;12.60;1.00;;;;;;10412152;28;20289;-76
2023/10/05 10:34:43;;;;;;;3.30;2.30;;;12.80;1.00;;;;;;10368804;28;20252;-77
2023/10/05 10:40:25;;;;;;;4.28;2.45;;;13.70;99.90;;;;;;10369551;28;20215;-77
2023/10/05 10:45:49;;;;;;;5.13;2.22;;;15.80;1.00;;;;;;10303774;28;20288;-77
2023/10/05 10:51:11;;;;;;;7.30;2.63;;;17.20;1.00;;;;;;10321044;28;20220;-78
2023/10/05 10:56:42;;;;;;;7.60;2.28;;;18.10;1.00;;;;;;10353348;28;20224;-77
2023/10/05 11:02:11;;;;;;;3.50;2.00;;;18.50;1.00;;;;;;10350259;28;20499;-78
2023/10/05 11:07:34;;;;;;;5.22;2.70;;;18.10;99.90;;;;;;10347506;28;20225;-77
2023/10/05 11:13:19;;;;;;;6.85;3.72;;;18.30;99.90;;;;;;10425028;28;20239;-77
2023/10/05 11:18:57;;;;;;;7.05;2.10;;;18.60;99.90;;;;;;10431547;28;20207;-77
2023/10/05 11:24:25;;;;;;;5.82;2.50;;;18.60;74.00;;;;;;10453571;28;20264;-76
2023/10/05 11:29:49;;;;;;;8.32;2.55;;;17.30;99.90;;;;;;10399028;28;20210;-77
2023/10/05 11:35:13;;;;;;;4.40;2.13;;;16.20;99.90;;;;;;10483620;28;20285;-77
2023/10/05 11:40:42;;;;;;;5.15;2.08;;;15.40;99.90;;;;;;10458345;28;20432;-76
2023/10/05 11:51:45;;;;;;;5.55;2.20;;;15.10;99.90;;;;;;10456487;28;20222;-77
2023/10/05 11:57:06;;;;;;;6.15;1.65;;;16.50;97.30;;;;;;10433225;28;20283;-77
2023/10/05 12:02:27;;;;;;;5.10;1.92;;;17.50;1.00;;;;;;10430672;28;20216;-77
2023/10/05 12:07:50;;;;;;;4.80;1.83;;;18.20;99.90;;;;;;10443215;28;20280;-77
2023/10/05 12:13:12;;;;;;;9.82;1.88;;;18.40;99.90;;;;;;10430925;28;20230;-76
2023/10/05 12:18:34;;;;;;;3.88;1.50;;;18.90;51.00;;;;;;10430385;28;20285;-78
2023/10/05 12:23:55;;;;;;;3.05;1.65;;;19.20;1.00;;;;;;10428158;28;20209;-78
2023/10/05 12:29:17;;;;;;;7.68;1.88;;;19.70;1.00;;;;;;10431571;28;20203;-78
2023/10/05 12:34:40;;;;;;;4.15;1.40;;;20.70;99.90;;;;;;10416014;28;20438;-80
2023/10/05 12:40:26;;;;;;;5.15;1.48;;;21.50;99.90;;;;;;10410999;28;20233;-77
2023/10/05 12:45:44;;;;;;;5.97;1.42;;;21.60;99.90;;;;;;10390119;28;20231;-76
2023/10/05 12:51:08;;;;;;;9.23;1.60;;;21.40;99.90;;;;;;10416479;28;20201;-77
2023/10/05 12:56:29;;;;;;;8.88;1.45;;;21.30;99.90;;;;;;10435504;28;20199;-78
2023/10/05 13:01:57;;;;;;;6.28;1.52;;;20.40;99.90;;;;;;10455647;28;20232;-78
2023/10/05 13:07:21;;;;;;;7.85;1.73;;;20.00;99.90;;;;;;10429195;28;20240;-78
2023/10/05 13:13:09;;;;;;;6.28;1.70;;;20.00;99.90;;;;;;10431626;28;20232;-77
2023/10/05 13:18:31;;;;;;;4.30;1.50;;;19.90;99.90;;;;;;10430103;28;20561;-76
2023/10/05 13:23:54;;;;;;;6.50;1.60;;;19.60;99.90;;;;;;10415264;28;20211;-78
2023/10/05 13:29:24;;;;;;;6.25;1.70;;;20.00;99.90;;;;;;10428266;28;20208;-79
2023/10/05 13:34:46;;;;;;;9.45;1.85;;;19.70;99.90;;;;;;10434399;28;20588;-79
2023/10/05 13:40:08;;;;;;;8.23;1.52;;;19.50;99.90;;;;;;10436388;28;20405;-78
2023/10/05 13:45:29;;;;;;;3.67;1.35;;;19.60;99.90;;;;;;10453626;28;20222;-78
2023/10/05 13:50:51;;;;;;;5.55;1.25;;;19.50;99.90;;;;;;10453815;28;20208;-77
2023/10/05 13:56:14;;;;;;;7.32;2.00;;;19.20;99.90;;;;;;10442660;28;20234;-75
2023/10/05 14:01:42;;;;;;;6.40;1.65;;;18.60;99.90;;;;;;10460356;28;20236;-75
2023/10/05 14:07:07;;;;;;;9.65;2.53;;;17.60;99.90;;;;;;10442058;28;20243;-82
2023/10/05 14:12:31;;;;;;;7.20;1.50;;;;;;;;;;10446364;28;20223;-79
2023/10/05 14:17:56;;;;;;;7.07;1.65;;;;;;;;;;10437199;28;20322;-75
2023/10/05 14:23:20;;;;;;;7.85;1.98;;;;;;;;;;10470162;28;20230;-77
2023/10/05 14:28:42;;;;;;;5.53;2.28;;;15.30;1.00;;;;;;10445069;28;20271;-76
2023/10/05 14:34:05;;;;;;;6.28;2.40;;;15.00;1.00;;;;;;10451804;28;20247;-77
2023/10/05 14:39:36;;;;;;;4.97;1.80;;;14.70;99.90;;;;;;10459373;28;20502;-75
2023/10/05 14:44:57;;;;;;;8.33;2.70;;;14.60;99.90;;;;;;10453165;28;20222;-77
2023/10/05 14:50:19;;;;;;;10.98;3.10;;;14.50;1.00;;;;;;10439629;28;20203;-76
2023/10/05 14:55:41;;;;;;;12.30;2.53;;;14.40;1.00;;;;;;10452168;28;20232;-76
2023/10/05 15:01:02;;;;;;;10.13;2.50;;;14.40;99.90;;;;;;10445455;28;20200;-76
2023/10/05 15:06:24;;;;;;;10.83;2.63;;;14.40;99.90;;;;;;10436193;28;20497;-75
2023/10/05 15:11:45;;;;;;;6.70;1.80;;;14.30;99.90;;;;;;10437881;28;20207;-77
2023/10/05 15:17:06;;;;;;;6.53;1.95;;;14.20;1.00;;;;;;10438221;28;20239;-76
2023/10/05 15:22:27;;;;;;;6.47;1.77;;;14.00;1.00;;;;;;10437624;28;20203;-74
2023/10/05 15:27:50;;;;;;;8.52;2.25;;;13.80;99.90;;;;;;10437743;28;20193;-75
2023/10/05 15:33:11;;;;;;;8.60;2.07;;;13.70;1.00;;;;;;10435675;28;20230;-76
2023/10/05 15:38:33;;;;;;;6.10;1.90;;;13.60;7.20;;;;;;10434219;28;20378;-75
2023/10/05 15:43:55;;;;;;;9.17;2.40;;;13.60;42.10;;;;;;10437180;28;20500;-76
2023/10/05 15:49:16;;;;;;;9.10;2.93;;;13.50;1.00;;;;;;10438639;28;20190;-76
2023/10/05 15:54:38;;;;;;;7.63;2.73;;;13.40;1.00;;;;;;10411372;28;20258;-75
2023/10/05 16:00:00;;;;;;;9.93;2.13;;;13.40;1.00;;;;;;10397426;28;20447;-75
2023/10/05 16:05:39;;;;;;;11.33;2.17;;;13.40;99.90;;;;;;10397024;28;20423;-79
2023/10/05 16:11:02;;;;;;;13.17;2.70;;;13.40;99.90;;;;;;10434447;28;20513;-75
2023/10/05 16:16:25;;;;;;;9.80;2.77;;;13.30;99.90;;;;;;10437575;28;20274;-76
2023/10/05 16:21:46;;;;;;;6.70;2.23;;;13.30;1.00;;;;;;10432669;28;20200;-78
2023/10/05 16:27:08;;;;;;;14.77;4.20;;;13.30;1.00;;;;;;10436545;28;20503;-75
2023/10/05 16:32:29;;;;;;;6.63;2.10;;;13.30;99.90;;;;;;10421803;28;20463;-77
2023/10/05 16:38:09;;;;;;;15.32;2.65;;;13.30;99.90;;;;;;10433472;28;20202;-74
2023/10/05 16:43:31;;;;;;;10.02;3.28;;;13.30;1.00;;;;;;10436771;28;20206;-73
2023/10/05 16:48:53;;;;;;;11.30;3.30;;;13.30;99.90;;;;;;10430748;28;20231;-76
2023/10/05 16:54:14;;;;;;;6.93;2.50;;;13.20;1.00;;;;;;10431504;28;20266;-73
2023/10/05 16:59:36;;;;;;;5.30;1.77;;;13.20;1.00;;;;;;10436435;28;20505;-76
2023/10/05 17:04:57;;;;;;;5.70;2.57;;;13.20;1.00;;;;;;10436194;28;20274;-76
2023/10/05 17:10:18;;;;;;;10.03;3.17;;;13.20;1.00;;;;;;10441895;28;20321;-75
2023/10/05 17:15:39;;;;;;;11.13;3.63;;;13.20;99.90;;;;;;10441962;28;20595;-77
2023/10/05 17:21:01;;;;;;;12.03;3.60;;;13.10;99.90;;;;;;10445810;28;20214;-77
2023/10/05 17:26:22;;;;;;;7.47;2.93;;;13.00;1.00;;;;;;10443295;28;20249;-76
2023/10/05 17:31:44;;;;;;;8.30;4.03;;;12.90;1.00;;;;;;10442251;28;20203;-78
2023/10/05 17:37:05;;;;;;;10.93;2.43;;;12.90;1.00;;;;;;10442613;28;20663;-78
2023/10/05 17:42:27;;;;;;;9.03;2.73;;;;;;;;;;10437006;28;20203;-77
2023/10/05 17:47:49;;;;;;;8.07;2.40;;;;;;;;;;10417185;28;20206;-78
2023/10/05 17:53:10;;;;;;;8.10;3.70;;;;;;;;;;10441133;28;20273;-77
2023/10/05 17:58:31;;;;;;;8.20;3.70;;;12.70;1.00;;;;;;10440457;28;20207;-80
2023/10/05 18:03:53;;;;;;;9.00;3.70;;;12.60;1.00;;;;;;10440660;28;20230;-76
2023/10/05 18:09:17;;;;;;;8.10;3.63;;;12.70;99.90;;;;;;10441902;28;20223;-75
2023/10/05 18:14:39;;;;;;;8.90;3.40;;;12.70;99.90;;;;;;10474347;28;20635;-76
2023/10/05 18:20:00;;;;;;;9.07;4.13;;;12.90;99.90;;;;;;10439931;28;20203;-76
2023/10/05 18:25:23;;;;;;;9.57;4.53;;;12.70;99.90;;;;;;10440983;28;20209;-77
2023/10/05 18:30:44;;;;;;;8.23;3.80;;;12.80;99.90;;;;;;10415192;28;20276;-78
2023/10/05 18:36:10;;;;;;;9.70;2.80;;;12.60;1.00;;;;;;10400834;28;20555;-77
2023/10/05 18:41:32;;;;;;;8.73;3.07;;;12.80;1.00;;;;;;10429793;28;20209;-76
2023/10/05 18:46:55;;;;;;;53.08;39.42;;;12.50;99.90;;;;;;10438764;28;20494;-78
2023/10/05 18:52:18;;;;;;;85.03;57.87;;;;;;;;;;10451884;28;20240;-76
2023/10/05 18:57:42;;;;;;;55.13;39.77;;;12.60;1.00;;;;;;10439840;28;20275;-76
2023/10/05 19:03:04;;;;;;;14.27;9.10;;;12.50;99.90;;;;;;10439238;28;20401;-76
2023/10/05 19:08:25;;;;;;;8.90;3.57;;;12.50;99.90;;;;;;10436239;28;20236;-76
2023/10/05 19:13:47;;;;;;;5.63;2.30;;;12.50;1.00;;;;;;10440314;28;20420;-76
2023/10/05 19:19:09;;;;;;;11.77;5.50;;;12.50;99.90;;;;;;10440045;28;20204;-79
2023/10/05 19:24:30;;;;;;;12.67;5.33;;;12.50;1.00;;;;;;10438633;28;20436;-79
2023/10/05 19:29:54;;;;;;;18.93;11.47;;;12.60;1.00;;;;;;10439592;28;20225;-78
2023/10/05 19:35:20;;;;;;;8.60;5.37;;;;;;;;;;10438106;28;20529;-79
2023/10/05 19:40:43;;;;;;;17.87;3.90;;;13.60;99.90;;;;;;10452607;28;20233;-79
2023/10/05 19:46:05;;;;;;;5.87;2.33;;;12.50;99.90;;;;;;10450744;28;20208;-79
2023/10/05 19:51:28;;;;;;;3.00;1.83;;;;;;;;;;10436889;28;20200;-79
2023/10/05 19:56:52;;;;;;;3.87;1.70;;;12.50;99.90;;;;;;10436341;28;20231;-78
2023/10/05 20:02:15;;;;;;;1.90;1.20;;;12.30;1.00;;;;;;10436832;28;20217;-79
2023/10/05 20:07:36;;;;;;;3.73;1.63;;;12.00;1.00;;;;;;10436143;28;20747;-78
2023/10/05 20:12:58;;;;;;;2.77;1.17;;;;;;;;;;10435338;28;20240;-79
2023/10/05 20:18:20;;;;;;;2.77;1.80;;;11.90;88.20;;;;;;10449186;28;20312;-77
2023/10/05 20:23:41;;;;;;;2.40;1.40;;;12.10;99.90;;;;;;10455471;28;20289;-76
2023/10/05 20:29:05;;;;;;;2.00;1.13;;;11.90;99.90;;;;;;10442425;28;20248;-75
2023/10/05 20:34:27;;;;;;;2.37;1.20;;;11.60;99.90;;;;;;10474505;28;20524;-77
2023/10/05 20:39:48;;;;;;;2.87;1.47;;;11.80;99.90;;;;;;10437160;28;20280;-76
2023/10/05 20:45:09;;;;;;;3.50;1.77;;;12.10;99.90;;;;;;10436300;28;20191;-77
2023/10/05 20:50:36;;;;;;;47.27;33.67;;;11.50;99.90;;;;;;10457115;28;20198;-77
2023/10/05 20:55:58;;;;;;;154.90;109.20;;;11.40;99.90;;;;;;10436313;28;20220;-76
2023/10/05 21:01:19;;;;;;;59.03;45.07;;;11.40;99.90;;;;;;10436279;28;20209;-76
2023/10/05 21:06:40;;;;;;;15.83;11.67;;;11.40;99.90;;;;;;10434697;28;20250;-76
2023/10/05 21:12:02;;;;;;;5.53;3.40;;;11.40;99.90;;;;;;10436471;28;20189;-76
2023/10/05 21:17:23;;;;;;;3.60;1.90;;;11.10;99.90;;;;;;10421327;28;20227;-77
2023/10/05 21:22:44;;;;;;;3.00;1.50;;;11.20;99.90;;;;;;10420906;28;20327;-76
2023/10/05 21:28:06;;;;;;;3.80;1.40;;;11.10;99.90;;;;;;10434890;28;20194;-78
2023/10/05 21:33:27;;;;;;;2.80;1.30;;;11.30;99.90;;;;;;10434647;28;20217;-77
2023/10/05 21:38:50;;;;;;;1.63;1.00;;;11.10;99.90;;;;;;10434790;28;20203;-76
2023/10/05 21:44:11;;;;;;;8.53;6.37;;;11.10;1.00;;;;;;10435541;28;20514;-75
2023/10/05 21:49:32;;;;;;;44.53;34.83;;;11.20;1.00;;;;;;10437220;28;20280;-77
2023/10/05 21:54:54;;;;;;;23.83;18.83;;;11.20;1.00;;;;;;10405145;28;20603;-76
2023/10/05 22:00:36;;;;;;;17.93;14.07;;;11.30;1.00;;;;;;10412640;28;20203;-75
2023/10/05 22:05:57;;;;;;;10.60;7.30;;;11.20;1.00;;;;;;10441398;28;20470;-76
2023/10/05 22:11:19;;;;;;;5.87;4.63;;;11.30;1.00;;;;;;10441603;28;20558;-79
2023/10/05 22:16:42;;;;;;;3.13;2.00;;;11.30;1.00;;;;;;10441263;28;20256;-78
2023/10/05 22:22:03;;;;;;;2.97;1.30;;;11.30;1.00;;;;;;10441427;28;20201;-78
2023/10/05 22:27:24;;;;;;;2.43;1.07;;;11.60;1.00;;;;;;10442295;28;20216;-76
2023/10/05 22:32:46;;;;;;;2.80;1.43;;;11.50;1.00;;;;;;10441899;28;20431;-76
2023/10/05 22:38:11;;;;;;;2.63;1.23;;;11.50;1.00;;;;;;10440991;28;20388;-77
2023/10/05 22:43:32;;;;;;;3.53;1.27;;;11.60;1.00;;;;;;10441741;28;20198;-76
2023/10/05 22:48:53;;;;;;;0.97;0.80;;;11.60;99.90;;;;;;10440661;28;20193;-77
2023/10/05 22:54:14;;;;;;;5.70;1.00;;;11.60;1.00;;;;;;10439406;28;20226;-77
2023/10/05 22:59:36;;;;;;;3.33;1.07;;;11.60;1.00;;;;;;10440784;28;20186;-78
2023/10/05 23:04:57;;;;;;;2.20;1.30;;;11.50;99.90;;;;;;10438116;28;20276;-77
2023/10/05 23:10:19;;;;;;;2.40;1.27;;;11.60;1.00;;;;;;10440286;28;20218;-77
2023/10/05 23:15:40;;;;;;;2.30;1.10;;;11.50;99.90;;;;;;10440272;28;20268;-77
2023/10/05 23:21:04;;;;;;;1.53;0.93;;;11.40;1.00;;;;;;10437801;28;20209;-76
2023/10/05 23:26:25;;;;;;;1.30;0.90;;;11.40;1.00;;;;;;10440260;28;20278;-77
2023/10/05 23:31:47;;;;;;;3.00;1.00;;;11.30;1.00;;;;;;10423426;28;20209;-77
2023/10/05 23:37:08;;;;;;;1.80;0.83;;;11.30;1.00;;;;;;10439551;28;20231;-76
2023/10/05 23:42:30;;;;;;;2.10;1.33;;;11.10;1.00;;;;;;10424280;28;20546;-76
2023/10/05 23:47:53;;;;;;;2.20;1.03;;;11.10;1.00;;;;;;10437221;28;20199;-75
2023/10/05 23:53:14;;;;;;;3.10;1.13;;;11.10;1.00;;;;;;10436592;28;20236;-79
2023/10/05 23:58:35;;;;;;;3.67;1.20;;;11.00;1.00;;;;;;10451818;28;20203;-78
